createdAt,value
2023-06-13T00:01:05.919Z,65.38
2023-06-13T00:03:35.527Z,65.50
2023-06-13T00:06:03.700Z,65.57
2023-06-13T00:08:35.508Z,65.63
2023-06-13T00:11:03.125Z,65.73
2023-06-13T00:13:30.997Z,65.84
2023-06-13T00:15:59.296Z,66.01
2023-06-13T00:18:31.642Z,66.11
2023-06-13T00:21:00.290Z,66.12
2023-06-13T00:23:28.319Z,66.17
2023-06-13T00:25:57.089Z,66.23
2023-06-13T00:28:25.092Z,66.22
2023-06-13T00:30:53.348Z,66.21
2023-06-13T00:33:21.368Z,66.17
2023-06-13T00:35:49.343Z,66.23
2023-06-13T00:38:19.179Z,66.26
2023-06-13T00:40:48.222Z,66.21
2023-06-13T00:43:19.352Z,66.21
2023-06-13T00:45:48.755Z,66.11
2023-06-13T00:48:17.236Z,66.13
2023-06-13T00:50:45.432Z,66.09
2023-06-13T00:53:20.027Z,65.96
2023-06-13T00:55:50.850Z,66.01
2023-06-13T00:58:19.428Z,66.13
2023-06-13T01:00:47.525Z,66.28
2023-06-13T01:03:16.649Z,66.28
2023-06-13T01:05:47.233Z,66.36
2023-06-13T01:08:20.136Z,66.40
2023-06-13T01:10:53.822Z,66.40
2023-06-13T01:13:31.670Z,66.42
2023-06-13T01:16:10.653Z,66.44
2023-06-13T01:18:43.006Z,66.49
2023-06-13T01:21:13.168Z,66.52
2023-06-13T01:23:56.310Z,66.53
2023-06-13T01:26:45.156Z,66.68
2023-06-13T01:29:18.391Z,66.73
2023-06-13T01:31:54.338Z,66.82
2023-06-13T01:34:23.014Z,66.94
2023-06-13T01:36:52.335Z,67.02
2023-06-13T01:39:20.166Z,67.13
2023-06-13T01:41:49.789Z,67.21
2023-06-13T01:44:22.538Z,67.29
2023-06-13T01:47:24.435Z,67.28
2023-06-13T01:50:15.949Z,67.31
2023-06-13T01:53:07.071Z,67.32
2023-06-13T01:55:45.391Z,67.33
2023-06-13T01:58:38.406Z,67.40
2023-06-13T02:01:08.442Z,67.72
2023-06-13T02:03:37.650Z,67.62
2023-06-13T02:06:05.649Z,67.56
2023-06-13T02:08:35.693Z,67.46
2023-06-13T02:11:04.103Z,67.41
2023-06-13T02:13:32.792Z,67.46
2023-06-13T02:16:05.574Z,67.55
2023-06-13T02:18:35.833Z,67.47
2023-06-13T02:21:04.395Z,67.49
2023-06-13T02:23:33.545Z,67.52
2023-06-13T02:26:01.811Z,67.55
2023-06-13T02:28:29.519Z,67.51
2023-06-13T02:30:57.664Z,67.50
2023-06-13T02:33:25.659Z,67.50
2023-06-13T02:35:53.567Z,67.52
2023-06-13T02:38:21.456Z,67.46
2023-06-13T02:40:49.785Z,67.40
2023-06-13T02:43:17.620Z,67.39
2023-06-13T02:45:45.198Z,67.36
2023-06-13T02:48:13.042Z,67.29
2023-06-13T02:50:41.098Z,67.27
2023-06-13T02:53:09.244Z,67.29
2023-06-13T02:55:38.111Z,67.28
2023-06-13T02:58:07.419Z,67.33
2023-06-13T03:00:35.823Z,67.45
2023-06-13T03:03:05.762Z,67.48
2023-06-13T03:05:34.613Z,67.48
2023-06-13T03:08:03.067Z,67.47
2023-06-13T03:10:30.826Z,67.47
2023-06-13T03:12:58.936Z,67.47
2023-06-13T03:15:27.795Z,67.50
2023-06-13T03:17:58.564Z,67.42
2023-06-13T03:20:28.640Z,67.36
2023-06-13T03:22:58.693Z,67.35
2023-06-13T03:25:26.594Z,67.29
2023-06-13T03:27:54.586Z,67.24
2023-06-13T03:30:22.869Z,67.21
2023-06-13T03:32:52.810Z,67.21
2023-06-13T03:35:22.633Z,67.24
2023-06-13T03:37:50.699Z,67.22
2023-06-13T03:40:19.344Z,67.20
2023-06-13T03:42:47.824Z,67.22
2023-06-13T03:45:17.770Z,67.30
2023-06-13T03:47:46.962Z,67.33
2023-06-13T03:50:21.100Z,67.30
2023-06-13T03:52:49.350Z,67.31
2023-06-13T03:55:17.779Z,67.23
2023-06-13T03:57:47.651Z,67.28
2023-06-13T04:00:16.984Z,67.24
2023-06-13T04:02:45.878Z,67.14
2023-06-13T04:05:14.606Z,67.21
2023-06-13T04:07:44.292Z,67.29
2023-06-13T04:10:14.334Z,67.25
2023-06-13T04:12:44.153Z,66.99
2023-06-13T04:15:12.107Z,66.90
2023-06-13T04:17:41.128Z,66.88
2023-06-13T04:20:29.567Z,66.90
2023-06-13T04:23:00.737Z,66.81
2023-06-13T04:25:36.255Z,66.62
2023-06-13T04:28:14.114Z,66.53
2023-06-13T04:30:46.014Z,66.56
2023-06-13T04:33:18.073Z,66.52
2023-06-13T04:35:50.860Z,66.54
2023-06-13T04:38:21.093Z,66.52
2023-06-13T04:40:55.014Z,66.44
2023-06-13T04:43:26.166Z,66.61
2023-06-13T04:46:02.937Z,66.56
2023-06-13T04:48:36.352Z,66.41
2023-06-13T04:51:08.104Z,66.39
2023-06-13T04:53:41.799Z,66.29
2023-06-13T04:56:11.725Z,66.37
2023-06-13T04:58:46.308Z,66.32
2023-06-13T05:01:16.538Z,66.36
2023-06-13T05:03:46.443Z,66.52
2023-06-13T05:06:14.561Z,66.60
2023-06-13T05:08:42.756Z,66.46
2023-06-13T05:11:12.601Z,66.11
2023-06-13T05:13:40.450Z,66.24
2023-06-13T05:16:10.148Z,66.17
2023-06-13T05:18:40.032Z,66.32
2023-06-13T05:21:08.718Z,66.30
2023-06-13T05:23:38.598Z,66.14
2023-06-13T05:26:06.766Z,66.09
2023-06-13T05:28:34.702Z,66.20
2023-06-13T05:31:02.873Z,66.12
2023-06-13T05:33:33.804Z,66.32
2023-06-13T05:36:01.759Z,66.16
2023-06-13T05:38:29.588Z,66.03
2023-06-13T05:40:57.755Z,66.18
2023-06-13T05:43:25.671Z,66.00
2023-06-13T05:45:53.874Z,66.00
2023-06-13T05:48:21.456Z,65.51
2023-06-13T05:50:49.289Z,65.71
2023-06-13T05:53:17.130Z,66.03
2023-06-13T05:55:45.366Z,66.37
2023-06-13T05:58:13.479Z,66.02
2023-06-13T06:00:42.960Z,65.86
2023-06-13T06:03:11.050Z,65.79
2023-06-13T06:05:43.849Z,66.46
2023-06-13T06:08:12.708Z,67.27
2023-06-13T06:10:40.593Z,67.94
2023-06-13T06:13:08.388Z,68.21
2023-06-13T06:15:36.382Z,68.75
2023-06-13T06:18:04.673Z,68.87
2023-06-13T06:20:32.607Z,68.67
2023-06-13T06:23:00.521Z,68.98
2023-06-13T06:25:28.565Z,69.18
2023-06-13T06:27:57.474Z,69.13
2023-06-13T06:30:26.545Z,68.98
2023-06-13T06:32:56.085Z,68.62
2023-06-13T06:35:24.380Z,68.80
2023-06-13T06:37:52.183Z,69.06
2023-06-13T06:40:20.316Z,69.28
2023-06-13T06:42:48.908Z,69.20
2023-06-13T06:45:18.850Z,69.23
2023-06-13T06:47:47.155Z,69.30
2023-06-13T06:50:15.558Z,69.41
2023-06-13T06:52:44.120Z,70.56
2023-06-13T06:55:12.338Z,70.00
2023-06-13T06:57:40.576Z,70.22
2023-06-13T07:00:13.799Z,70.65
2023-06-13T07:02:43.382Z,71.56
2023-06-13T07:05:12.429Z,72.00
2023-06-13T07:07:41.108Z,71.48
2023-06-13T07:10:14.510Z,71.29
2023-06-13T07:12:43.079Z,71.62
2023-06-13T07:15:10.884Z,71.91
2023-06-13T07:17:38.976Z,72.11
2023-06-13T07:20:12.356Z,72.27
2023-06-13T07:22:41.363Z,72.67
2023-06-13T07:25:09.311Z,72.89
2023-06-13T07:27:38.180Z,73.14
2023-06-13T07:30:09.395Z,73.38
2023-06-13T07:32:37.218Z,73.67
2023-06-13T07:35:07.087Z,73.97
2023-06-13T07:37:35.101Z,74.32
2023-06-13T07:40:06.216Z,74.49
2023-06-13T07:42:34.190Z,74.57
2023-06-13T07:45:02.236Z,74.69
2023-06-13T07:47:30.297Z,74.71
2023-06-13T07:49:58.385Z,74.92
2023-06-13T07:52:26.412Z,75.00
2023-06-13T07:54:54.434Z,75.23
2023-06-13T07:59:55.253Z,75.68
2023-06-13T08:02:24.974Z,75.86
2023-06-13T08:04:55.673Z,76.49
2023-06-13T08:07:23.169Z,76.61
2023-06-13T08:09:51.223Z,76.49
2023-06-13T08:12:19.143Z,76.56
2023-06-13T08:14:46.928Z,76.61
2023-06-13T08:17:14.895Z,76.63
2023-06-13T08:19:42.722Z,77.00
2023-06-13T08:22:10.544Z,77.30
2023-06-13T08:24:38.586Z,77.38
2023-06-13T08:27:08.499Z,77.41
2023-06-13T08:29:36.397Z,77.25
2023-06-13T08:32:05.327Z,77.45
2023-06-13T08:34:33.595Z,77.71
2023-06-13T08:37:01.733Z,78.08
2023-06-13T08:39:29.598Z,78.56
2023-06-13T08:42:04.338Z,78.88
2023-06-13T08:44:32.337Z,78.77
2023-06-13T08:47:00.400Z,79.50
2023-06-13T08:49:28.417Z,79.37
2023-06-13T08:51:59.363Z,79.46
2023-06-13T08:54:29.717Z,79.12
2023-06-13T08:57:00.040Z,79.29
2023-06-13T08:59:28.181Z,79.22
2023-06-13T09:01:58.077Z,79.36
2023-06-13T09:04:30.653Z,79.31
2023-06-13T09:06:59.419Z,78.43
2023-06-13T09:09:28.431Z,79.50
2023-06-13T09:11:57.773Z,79.63
2023-06-13T09:14:25.606Z,79.43
2023-06-13T09:16:56.472Z,78.96
2023-06-13T09:19:24.618Z,78.37
2023-06-13T09:21:53.247Z,78.20
2023-06-13T09:24:21.965Z,77.95
2023-06-13T09:26:50.888Z,77.85
2023-06-13T09:29:27.185Z,77.08
2023-06-13T09:31:49.804Z,76.88
2023-06-13T09:34:18.692Z,77.11
2023-06-13T09:36:48.262Z,76.86
2023-06-13T09:39:19.876Z,76.90
2023-06-13T09:41:57.287Z,76.97
2023-06-13T09:47:06.263Z,76.64
2023-06-13T09:49:45.014Z,76.04
2023-06-13T09:52:09.768Z,75.52
2023-06-13T09:54:42.059Z,75.48
2023-06-13T09:57:13.476Z,75.11
2023-06-13T09:59:43.209Z,75.25
2023-06-13T10:02:11.793Z,74.50
2023-06-13T10:04:40.758Z,74.65
2023-06-13T10:07:08.486Z,74.45
2023-06-13T10:09:36.797Z,74.51
2023-06-13T10:12:09.575Z,72.90
2023-06-13T10:14:41.554Z,72.68
2023-06-13T10:17:13.319Z,69.67
2023-06-13T10:19:42.775Z,69.37
2023-06-13T10:22:13.606Z,69.58
2023-06-13T10:24:42.396Z,69.78
2023-06-13T10:27:11.960Z,68.94
2023-06-13T10:29:57.660Z,68.89
2023-06-13T10:32:54.868Z,68.12
2023-06-13T10:35:34.317Z,67.10
2023-06-13T10:38:34.759Z,66.24
2023-06-13T10:41:40.459Z,66.58
2023-06-13T10:44:22.585Z,66.21
2023-06-13T10:47:21.979Z,64.90
2023-06-13T10:49:55.397Z,65.22
2023-06-13T10:52:27.139Z,65.50
2023-06-13T10:55:05.128Z,65.83
2023-06-13T10:57:52.362Z,64.98
2023-06-13T11:00:34.307Z,65.19
2023-06-13T11:03:12.152Z,65.95
2023-06-13T11:05:50.938Z,64.94
2023-06-13T11:08:25.410Z,65.08
2023-06-13T11:10:54.291Z,65.33
2023-06-13T11:13:26.257Z,64.62
2023-06-13T11:16:20.465Z,64.46
2023-06-13T11:18:49.425Z,64.88
2023-06-13T11:21:19.231Z,63.14
2023-06-13T11:23:58.066Z,61.70
2023-06-13T11:26:28.700Z,63.17
2023-06-13T11:28:56.523Z,63.40
2023-06-13T11:31:24.870Z,62.43
2023-06-13T11:33:55.374Z,61.96
2023-06-13T11:36:31.044Z,61.53
2023-06-13T11:39:01.017Z,61.08
2023-06-13T11:41:30.757Z,61.36
2023-06-13T11:44:02.494Z,61.38
2023-06-13T11:46:31.435Z,61.62
2023-06-13T11:48:59.585Z,61.90
2023-06-13T11:51:35.626Z,62.08
2023-06-13T11:54:03.892Z,60.89
2023-06-13T11:56:33.869Z,61.04
2023-06-13T11:59:20.895Z,61.44
2023-06-13T12:01:54.094Z,60.69
2023-06-13T12:04:27.345Z,59.92
2023-06-13T12:06:55.602Z,58.89
2023-06-13T12:09:23.661Z,59.09
2023-06-13T12:11:52.431Z,58.48
2023-06-13T12:14:21.342Z,59.26
2023-06-13T12:16:54.592Z,59.24
2023-06-13T12:19:24.058Z,59.52
2023-06-13T12:21:59.747Z,58.57
2023-06-13T12:24:30.583Z,58.94
2023-06-13T12:26:59.073Z,57.97
2023-06-13T12:29:29.473Z,58.33
2023-06-13T12:32:04.793Z,59.61
2023-06-13T12:34:37.501Z,60.19
2023-06-13T12:37:09.188Z,60.59
2023-06-13T12:39:38.377Z,61.03
2023-06-13T12:42:10.149Z,61.35
2023-06-13T12:44:39.331Z,61.67
2023-06-13T12:47:09.016Z,61.75
2023-06-13T12:49:41.154Z,61.82
2023-06-13T12:52:17.521Z,62.62
2023-06-13T12:54:46.366Z,63.07
2023-06-13T12:57:22.126Z,63.19
2023-06-13T13:00:03.502Z,63.59
2023-06-13T13:02:42.526Z,64.21
2023-06-13T13:05:10.976Z,65.31
2023-06-13T13:07:38.626Z,65.81
2023-06-13T13:10:09.448Z,65.97
2023-06-13T13:12:37.151Z,66.55
2023-06-13T13:15:05.862Z,67.35
2023-06-13T13:17:34.747Z,67.66
2023-06-13T13:20:03.894Z,68.51
2023-06-13T13:22:31.866Z,68.86
2023-06-13T13:24:59.838Z,69.09
2023-06-13T13:27:27.692Z,69.36
2023-06-13T13:29:57.577Z,69.50
2023-06-13T13:32:27.630Z,69.54
2023-06-13T13:34:57.985Z,69.81
2023-06-13T13:37:25.870Z,70.08
2023-06-13T13:39:53.508Z,70.26
2023-06-13T13:42:26.279Z,70.35
2023-06-13T13:44:50.660Z,70.42
2023-06-13T13:47:18.217Z,70.58
2023-06-13T13:49:45.983Z,71.15
2023-06-13T13:52:15.002Z,71.07
2023-06-13T13:54:43.158Z,71.20
2023-06-13T13:57:11.209Z,71.76
2023-06-13T13:59:38.716Z,72.13
2023-06-13T14:02:06.589Z,72.15
2023-06-13T14:04:35.075Z,72.15
2023-06-13T14:07:03.136Z,72.28
2023-06-13T14:09:32.490Z,72.42
2023-06-13T14:12:00.551Z,72.40
2023-06-13T14:14:31.865Z,72.71
2023-06-13T14:16:59.565Z,73.45
2023-06-13T14:19:36.783Z,73.92
2023-06-13T14:22:04.997Z,73.80
2023-06-13T14:24:34.193Z,74.31
2023-06-13T14:27:02.094Z,74.36
2023-06-13T14:29:30.620Z,74.45
2023-06-13T14:31:58.555Z,74.75
2023-06-13T14:34:28.731Z,74.96
2023-06-13T14:36:58.008Z,76.53
2023-06-13T14:39:25.755Z,76.56
2023-06-13T14:41:53.443Z,76.49
2023-06-13T14:44:21.139Z,76.58
2023-06-13T14:46:48.994Z,77.27
2023-06-13T14:49:18.675Z,77.70
2023-06-13T14:51:46.535Z,78.23
2023-06-13T14:54:16.817Z,78.10
2023-06-13T14:56:44.859Z,78.21
2023-06-13T14:59:13.302Z,78.62
2023-06-13T15:01:41.420Z,78.91
2023-06-13T15:04:09.678Z,79.10
2023-06-13T15:06:38.027Z,79.77
2023-06-13T15:09:05.853Z,79.94
2023-06-13T15:11:34.742Z,80.18
2023-06-13T15:14:03.452Z,80.54
2023-06-13T15:16:34.352Z,80.61
2023-06-13T15:19:03.016Z,80.91
2023-06-13T15:21:31.457Z,80.99
2023-06-13T15:24:00.276Z,81.23
2023-06-13T15:26:28.680Z,81.72
2023-06-13T15:28:57.469Z,81.23
2023-06-13T15:31:26.964Z,81.13
2023-06-13T15:33:54.854Z,81.18
2023-06-13T15:36:22.428Z,81.31
2023-06-13T15:38:50.091Z,81.88
2023-06-13T15:41:17.813Z,81.85
2023-06-13T15:43:45.774Z,82.03
2023-06-13T15:46:13.342Z,82.17
2023-06-13T15:48:41.155Z,82.36
2023-06-13T15:51:09.293Z,82.41
2023-06-13T15:53:38.899Z,82.52
2023-06-13T15:56:07.523Z,82.44
2023-06-13T15:58:37.757Z,82.77
2023-06-13T16:01:06.843Z,82.79
2023-06-13T16:03:34.818Z,82.83
2023-06-13T16:06:06.554Z,82.92
2023-06-13T16:08:37.480Z,82.83
2023-06-13T16:11:05.935Z,82.66
2023-06-13T16:13:36.870Z,82.77
2023-06-13T16:16:10.332Z,83.18
2023-06-13T16:18:38.704Z,82.98
2023-06-13T16:21:07.990Z,83.07
2023-06-13T16:23:37.310Z,82.96
2023-06-13T16:26:07.983Z,83.02
2023-06-13T16:28:37.941Z,83.00
2023-06-13T16:31:06.349Z,82.94
2023-06-13T16:33:38.469Z,83.02
2023-06-13T16:36:06.988Z,83.29
2023-06-13T16:38:38.642Z,83.10
2023-06-13T16:41:08.841Z,83.09
2023-06-13T16:43:37.593Z,83.09
2023-06-13T16:46:08.098Z,83.06
2023-06-13T16:48:36.546Z,83.09
2023-06-13T16:51:05.868Z,82.98
2023-06-13T16:53:37.601Z,82.92
2023-06-13T16:56:05.855Z,82.87
2023-06-13T16:58:34.221Z,82.87
2023-06-13T17:01:04.790Z,82.80
2023-06-13T17:03:32.752Z,82.74
2023-06-13T17:06:00.482Z,82.67
2023-06-13T17:08:28.973Z,82.52
2023-06-13T17:10:57.757Z,82.37
2023-06-13T17:13:26.213Z,82.46
2023-06-13T17:15:54.248Z,82.31
2023-06-13T17:18:22.241Z,82.34
2023-06-13T17:20:52.065Z,82.39
2023-06-13T17:23:19.772Z,82.46
2023-06-13T17:25:47.416Z,82.51
2023-06-13T17:28:15.665Z,82.49
2023-06-13T17:30:43.736Z,82.58
2023-06-13T17:33:12.534Z,82.65
2023-06-13T17:35:40.452Z,82.83
2023-06-13T17:38:08.362Z,83.04
2023-06-13T17:40:36.531Z,82.96
2023-06-13T17:43:04.659Z,83.01
2023-06-13T17:45:33.662Z,82.99
2023-06-13T17:48:03.653Z,82.96
2023-06-13T17:50:31.373Z,82.99
2023-06-13T17:52:59.013Z,83.08
2023-06-13T17:55:27.577Z,83.08
2023-06-13T17:57:55.506Z,83.17
2023-06-13T18:00:23.338Z,83.29
2023-06-13T18:02:54.359Z,83.16
2023-06-13T18:05:22.332Z,83.15
2023-06-13T18:07:52.223Z,83.32
2023-06-13T18:10:22.132Z,83.24
2023-06-13T18:12:50.634Z,83.15
2023-06-13T18:15:19.193Z,83.11
2023-06-13T18:17:47.898Z,83.16
2023-06-13T18:20:45.212Z,83.08
2023-06-13T18:30:01.944Z,83.01
2023-06-13T18:36:11.284Z,82.99
2023-06-13T18:45:35.027Z,82.87
2023-06-13T18:48:04.166Z,83.10
2023-06-13T19:03:26.416Z,83.34
2023-06-13T19:05:58.092Z,83.36
2023-06-13T19:08:28.477Z,83.40
2023-06-13T19:10:59.873Z,83.37
2023-06-13T19:13:28.526Z,83.32
2023-06-13T19:15:57.101Z,83.36
2023-06-13T19:18:25.855Z,83.53
2023-06-13T19:20:54.587Z,83.64
2023-06-13T19:23:25.130Z,83.52
2023-06-13T19:25:54.474Z,83.48
2023-06-13T19:28:23.711Z,83.60
2023-06-13T19:30:54.796Z,83.52
2023-06-13T19:33:23.662Z,83.48
2023-06-13T19:35:52.708Z,83.47
2023-06-13T19:38:33.969Z,83.48
2023-06-13T19:41:02.961Z,83.42
2023-06-13T19:43:32.053Z,83.40
2023-06-13T19:46:01.096Z,83.34
2023-06-13T19:48:30.230Z,83.54
2023-06-13T19:51:06.400Z,83.44
2023-06-13T19:53:33.430Z,83.52
2023-06-13T19:56:03.725Z,83.50
2023-06-13T19:58:33.290Z,83.56
2023-06-13T20:01:03.613Z,83.60
2023-06-13T20:03:32.037Z,83.59
2023-06-13T20:06:00.342Z,83.50
2023-06-13T20:08:29.323Z,83.61
2023-06-13T20:10:57.425Z,83.59
2023-06-13T20:13:25.796Z,83.64
2023-06-13T20:15:54.239Z,83.71
2023-06-13T20:18:22.925Z,83.71
2023-06-13T20:21:00.291Z,83.71
2023-06-13T20:23:31.028Z,83.72
2023-06-13T20:25:59.682Z,83.69
2023-06-13T20:28:28.582Z,83.68
2023-06-13T20:30:56.714Z,83.83
2023-06-13T20:33:25.034Z,83.91
2023-06-13T20:35:54.031Z,83.97
2023-06-13T20:38:28.580Z,84.08
2023-06-13T20:40:59.793Z,84.14
2023-06-13T20:43:30.172Z,84.15
2023-06-13T20:46:00.854Z,84.14
2023-06-13T20:48:30.988Z,84.23
2023-06-13T20:51:01.512Z,84.32
2023-06-13T20:53:39.698Z,84.41
2023-06-13T20:56:08.378Z,84.50
2023-06-13T20:58:36.637Z,84.52
2023-06-13T21:01:04.785Z,84.46
2023-06-13T21:03:34.802Z,84.49
2023-06-13T21:06:02.847Z,84.61
2023-06-13T21:08:32.879Z,84.62
2023-06-13T21:11:04.477Z,84.59
2023-06-13T21:13:32.881Z,84.60
2023-06-13T21:16:01.429Z,84.57
2023-06-13T21:18:29.670Z,84.60
2023-06-13T21:20:58.064Z,84.65
2023-06-13T21:23:26.326Z,84.63
2023-06-13T21:25:54.403Z,84.63
2023-06-13T21:28:22.507Z,84.64
2023-06-13T21:30:52.471Z,84.66
2023-06-13T21:33:21.540Z,84.66
2023-06-13T21:35:52.119Z,84.69
2023-06-13T21:38:21.414Z,84.72
2023-06-13T21:40:52.568Z,84.74
2023-06-13T21:43:20.463Z,84.91
2023-06-13T21:45:52.523Z,84.81
2023-06-13T21:48:21.673Z,84.78
2023-06-13T21:50:49.589Z,85.01
2023-06-13T21:53:18.031Z,85.02
2023-06-13T21:55:46.860Z,84.94
2023-06-13T21:58:16.722Z,84.97
2023-06-13T22:00:45.132Z,84.99
2023-06-13T22:03:13.911Z,85.02
2023-06-13T22:05:42.431Z,85.04
2023-06-13T22:08:11.810Z,85.22
2023-06-13T22:10:41.601Z,85.15
2023-06-13T22:13:11.694Z,85.24
2023-06-13T22:15:44.826Z,85.24
2023-06-13T22:18:16.386Z,85.29
2023-06-13T22:20:44.921Z,85.32
2023-06-13T22:23:13.528Z,85.46
2023-06-13T22:25:41.903Z,85.33
2023-06-13T22:28:12.299Z,85.47
2023-06-13T22:30:45.020Z,85.42
2023-06-13T22:33:16.808Z,85.50
2023-06-13T22:35:45.764Z,85.47
2023-06-13T22:38:15.737Z,85.46
2023-06-13T22:40:47.350Z,85.46
2023-06-13T22:43:16.205Z,85.56
2023-06-13T22:45:44.368Z,85.50
2023-06-13T22:48:12.359Z,85.54
2023-06-13T22:50:40.698Z,85.50
2023-06-13T22:53:08.580Z,85.53
2023-06-13T22:55:36.451Z,85.43
2023-06-13T22:58:06.580Z,85.36
2023-06-13T23:00:35.824Z,85.35
2023-06-13T23:03:05.393Z,85.31
2023-06-13T23:05:33.274Z,85.26
2023-06-13T23:08:01.303Z,85.35
2023-06-13T23:10:29.647Z,85.43
2023-06-13T23:12:57.752Z,85.37
2023-06-13T23:15:25.564Z,85.40
2023-06-13T23:17:53.836Z,85.39
2023-06-13T23:20:22.300Z,85.34
2023-06-13T23:22:50.329Z,85.47
2023-06-13T23:25:25.479Z,85.43
2023-06-13T23:28:06.434Z,85.48
2023-06-13T23:30:40.654Z,85.51
2023-06-13T23:33:22.603Z,85.45
2023-06-13T23:39:36.347Z,85.64
2023-06-13T23:41:48.880Z,85.65
2023-06-13T23:44:17.110Z,85.64
2023-06-13T23:46:45.760Z,85.59
2023-06-13T23:49:14.794Z,85.65
2023-06-13T23:51:42.880Z,85.69
2023-06-13T23:54:10.871Z,85.67
2023-06-13T23:56:38.852Z,85.62
2023-06-13T23:59:06.904Z,85.60
